YBCG/OOL METAR and TAF weather

Enter ICAO airport designator
Station Type Date Time Source
YBCG METAR 2021/07/24 20:00 UTC NOAA

YBCG 242000Z AUTO 32009KT 9999 // NCD 14/04 Q1010


Station Type Date Time Source
YBCG Decoded METAR 2021/07/24 20:00 UTC NOAA

Coolangatta Airport Aws, Australia (YBCG) 28-10S 153-30E 6M
Jul 24, 2021 - 04:00 PM EDT / 2021.07.24 2000 UTC
Wind: from the NW (320 degrees) at 10 MPH (9 KT):0
Visibility: greater than 7 mile(s):0
Temperature: 57 F (14 C)
Dew Point: 39 F (4 C)
Relative Humidity: 50%
Pressure (altimeter): 29.83 in. Hg (1010 hPa)
ob: YBCG 242000Z AUTO 32009KT 9999 // NCD 14/04 Q1010
cycle: 20

Station Type Date Time Source
YBCG TAF 2021/07/24 18:33 UTC NOAA

TAF YBCG 241704Z 2418/2518 32005KT CAVOK
FM250200 25014KT CAVOK
FM251200 21005KT CAVOK

Example: see airport list